SAS84F EKCH-EGLL
Flight info
| Callsign | SAS84F |
|---|---|
| Flight time | N/A |
| Altitude | 30000 |
| Route | LANGO DCT RAXLU DCT JUIST DCT ABNED L980 LOGAN |
| Aircraft | F28/M-SDFIRWY/H |
Departure
| Time | 2026-05-08 07:13 |
|---|---|
| Airport | Copenhagen Kastrup Airport (EKCH) |
Arrival
| Time | N/A |
|---|---|
| Airport | London Heathrow Airport (EGLL) |
| Time | Latitude | Longitude | Altitude | Speed | Heading |
|---|---|---|---|---|---|
| 2026-05-08 06:40 | 55.62521 | 12.65575 | -6 ft | 0 kts | 24° |
| 2026-05-08 07:00 | 55.62520 | 12.65575 | 21 ft | 2 kts | 24° |
| 2026-05-08 07:01 | 55.62498 | 12.65558 | 22 ft | 4 kts | 21° |
| 2026-05-08 07:01 | 55.62472 | 12.65542 | 23 ft | 4 kts | 14° |
| 2026-05-08 07:01 | 55.62448 | 12.65542 | 23 ft | 4 kts | 322° |
| 2026-05-08 07:01 | 55.62444 | 12.65560 | 23 ft | 1 kts | 269° |
| 2026-05-08 07:02 | 55.62444 | 12.65563 | 23 ft | 0 kts | 269° |
| 2026-05-08 07:06 | 55.62444 | 12.65549 | 21 ft | 5 kts | 269° |
| 2026-05-08 07:06 | 55.62443 | 12.65434 | 21 ft | 12 kts | 269° |
| 2026-05-08 07:06 | 55.62441 | 12.65289 | 21 ft | 11 kts | 269° |
| 2026-05-08 07:07 | 55.62404 | 12.65201 | 21 ft | 9 kts | 180° |
| 2026-05-08 07:07 | 55.62339 | 12.65204 | 21 ft | 10 kts | 180° |
| 2026-05-08 07:07 | 55.62261 | 12.65198 | 21 ft | 12 kts | 180° |
| 2026-05-08 07:07 | 55.62178 | 12.65142 | 22 ft | 14 kts | 213° |
| 2026-05-08 07:08 | 55.62092 | 12.65043 | 23 ft | 16 kts | 213° |
| 2026-05-08 07:08 | 55.61996 | 12.64932 | 21 ft | 18 kts | 213° |
| 2026-05-08 07:08 | 55.61888 | 12.64808 | 21 ft | 19 kts | 213° |
| 2026-05-08 07:08 | 55.61773 | 12.64675 | 21 ft | 21 kts | 213° |
| 2026-05-08 07:09 | 55.61649 | 12.64535 | 21 ft | 21 kts | 213° |
| 2026-05-08 07:09 | 55.61535 | 12.64401 | 21 ft | 19 kts | 213° |
| 2026-05-08 07:09 | 55.61432 | 12.64284 | 21 ft | 17 kts | 212° |
| 2026-05-08 07:09 | 55.61336 | 12.64174 | 24 ft | 17 kts | 213° |
| 2026-05-08 07:10 | 55.61238 | 12.64061 | 21 ft | 17 kts | 213° |
| 2026-05-08 07:10 | 55.61137 | 12.63945 | 22 ft | 17 kts | 213° |
| 2026-05-08 07:10 | 55.61035 | 12.63827 | 21 ft | 18 kts | 213° |
| 2026-05-08 07:10 | 55.60931 | 12.63706 | 23 ft | 18 kts | 213° |
| 2026-05-08 07:11 | 55.60842 | 12.63607 | 23 ft | 7 kts | 211° |
| 2026-05-08 07:11 | 55.60805 | 12.63591 | 21 ft | 6 kts | 172° |
| 2026-05-08 07:11 | 55.60778 | 12.63625 | 21 ft | 4 kts | 140° |
| 2026-05-08 07:11 | 55.60752 | 12.63668 | 21 ft | 5 kts | 131° |
| 2026-05-08 07:12 | 55.60732 | 12.63708 | 22 ft | 4 kts | 131° |
| 2026-05-08 07:12 | 55.60711 | 12.63752 | 21 ft | 7 kts | 130° |
| 2026-05-08 07:12 | 55.60672 | 12.63839 | 23 ft | 7 kts | 120° |
| 2026-05-08 07:12 | 55.60682 | 12.63878 | 23 ft | 9 kts | 41° |
| 2026-05-08 07:13 | 55.60892 | 12.64202 | 23 ft | 78 kts | 41° |
| 2026-05-08 07:13 | 55.61503 | 12.65145 | 21 ft | 153 kts | 41° |
| 2026-05-08 07:13 | 55.62396 | 12.66474 | 681 ft | 174 kts | 42° |
| 2026-05-08 07:13 | 55.63363 | 12.67902 | 1778 ft | 192 kts | 43° |
| 2026-05-08 07:14 | 55.64391 | 12.69465 | 2693 ft | 201 kts | 44° |
| 2026-05-08 07:14 | 55.65455 | 12.71082 | 3756 ft | 203 kts | 41° |
| 2026-05-08 07:14 | 55.66573 | 12.72653 | 4777 ft | 206 kts | 39° |
| 2026-05-08 07:14 | 55.67727 | 12.74158 | 5816 ft | 205 kts | 39° |
| 2026-05-08 07:15 | 55.68831 | 12.75643 | 7004 ft | 193 kts | 40° |
| 2026-05-08 07:15 | 55.69936 | 12.77097 | 7743 ft | 208 kts | 39° |
| 2026-05-08 07:15 | 55.71141 | 12.78695 | 8267 ft | 226 kts | 42° |
| 2026-05-08 07:15 | 55.72319 | 12.80587 | 8813 ft | 229 kts | 52° |
| 2026-05-08 07:16 | 55.73042 | 12.83043 | 9448 ft | 225 kts | 79° |
| 2026-05-08 07:16 | 55.72891 | 12.85766 | 9964 ft | 226 kts | 117° |
| 2026-05-08 07:16 | 55.71795 | 12.87710 | 10492 ft | 229 kts | 153° |
| 2026-05-08 07:16 | 55.70252 | 12.88344 | 11133 ft | 226 kts | 168° |
| 2026-05-08 07:17 | 55.68699 | 12.88792 | 11746 ft | 226 kts | 168° |
| 2026-05-08 07:17 | 55.67154 | 12.89339 | 12296 ft | 226 kts | 165° |
| 2026-05-08 07:17 | 55.65634 | 12.90057 | 12852 ft | 227 kts | 163° |
| 2026-05-08 07:17 | 55.64053 | 12.90108 | 13297 ft | 234 kts | 195° |
| 2026-05-08 07:18 | 55.62678 | 12.88563 | 13720 ft | 241 kts | 228° |
| 2026-05-08 07:18 | 55.61936 | 12.85899 | 14105 ft | 246 kts | 254° |
| 2026-05-08 07:18 | 55.61553 | 12.82932 | 14421 ft | 248 kts | 256° |
| 2026-05-08 07:18 | 55.61162 | 12.79945 | 14719 ft | 250 kts | 253° |
| 2026-05-08 07:19 | 55.60561 | 12.77087 | 15064 ft | 247 kts | 240° |
| 2026-05-08 07:19 | 55.59697 | 12.74450 | 15382 ft | 248 kts | 236° |
| 2026-05-08 07:19 | 55.58766 | 12.71865 | 15649 ft | 252 kts | 236° |
| 2026-05-08 07:19 | 55.57794 | 12.69224 | 15839 ft | 261 kts | 235° |
| 2026-05-08 07:20 | 55.56801 | 12.66482 | 16056 ft | 270 kts | 236° |
| 2026-05-08 07:20 | 55.55786 | 12.63631 | 16318 ft | 279 kts | 236° |
| 2026-05-08 07:20 | 55.54752 | 12.60670 | 16614 ft | 287 kts | 237° |
| 2026-05-08 07:20 | 55.53717 | 12.57653 | 16928 ft | 294 kts | 238° |
| 2026-05-08 07:21 | 55.52660 | 12.54528 | 17287 ft | 300 kts | 238° |
| 2026-05-08 07:21 | 55.51591 | 12.51332 | 17665 ft | 305 kts | 238° |
| 2026-05-08 07:21 | 55.50513 | 12.48089 | 18062 ft | 309 kts | 239° |
| 2026-05-08 07:21 | 55.49419 | 12.44796 | 18476 ft | 313 kts | 239° |
| 2026-05-08 07:22 | 55.48312 | 12.41472 | 18848 ft | 316 kts | 239° |
| 2026-05-08 07:22 | 55.47193 | 12.38125 | 19213 ft | 318 kts | 239° |
| 2026-05-08 07:22 | 55.46063 | 12.34759 | 19584 ft | 321 kts | 239° |
| 2026-05-08 07:22 | 55.44924 | 12.31370 | 19963 ft | 323 kts | 239° |
| 2026-05-08 07:23 | 55.43779 | 12.27961 | 20374 ft | 323 kts | 238° |
| 2026-05-08 07:23 | 55.42641 | 12.24559 | 20751 ft | 325 kts | 239° |
| 2026-05-08 07:23 | 55.41489 | 12.21125 | 21102 ft | 327 kts | 239° |
| 2026-05-08 07:23 | 55.40323 | 12.17668 | 21455 ft | 330 kts | 239° |
| 2026-05-08 07:24 | 55.39150 | 12.14183 | 21809 ft | 332 kts | 238° |
| 2026-05-08 07:24 | 55.37972 | 12.10679 | 22153 ft | 334 kts | 239° |
| 2026-05-08 07:24 | 55.36800 | 12.07199 | 22490 ft | 336 kts | 239° |
| 2026-05-08 07:24 | 55.35588 | 12.03613 | 22842 ft | 338 kts | 239° |
| 2026-05-08 07:25 | 55.34381 | 12.00049 | 23168 ft | 340 kts | 239° |
| 2026-05-08 07:25 | 55.33184 | 11.96516 | 23478 ft | 343 kts | 238° |
| 2026-05-08 07:25 | 55.30717 | 11.89300 | 24092 ft | 346 kts | 238° |
| 2026-05-08 07:26 | 55.29479 | 11.85666 | 24362 ft | 348 kts | 238° |
| 2026-05-08 07:26 | 55.28227 | 11.82027 | 24621 ft | 349 kts | 238° |
| 2026-05-08 07:26 | 55.26960 | 11.78377 | 24871 ft | 351 kts | 238° |
| 2026-05-08 07:26 | 55.25683 | 11.74707 | 25139 ft | 353 kts | 238° |
| 2026-05-08 07:27 | 55.24409 | 11.71029 | 25421 ft | 354 kts | 238° |
| 2026-05-08 07:27 | 55.23134 | 11.67324 | 25651 ft | 356 kts | 237° |
| 2026-05-08 07:27 | 55.21847 | 11.63598 | 25891 ft | 358 kts | 237° |
| 2026-05-08 07:27 | 55.20558 | 11.59868 | 26224 ft | 357 kts | 237° |
| 2026-05-08 07:28 | 55.19276 | 11.56149 | 26501 ft | 358 kts | 238° |
| 2026-05-08 07:28 | 55.17989 | 11.52412 | 26730 ft | 359 kts | 237° |
| 2026-05-08 07:28 | 55.16695 | 11.48651 | 26945 ft | 361 kts | 237° |
| 2026-05-08 07:28 | 55.15386 | 11.44890 | 27186 ft | 363 kts | 237° |
| 2026-05-08 07:29 | 55.14074 | 11.41125 | 27410 ft | 364 kts | 237° |
| 2026-05-08 07:29 | 55.12756 | 11.37336 | 27636 ft | 365 kts | 237° |
| 2026-05-08 07:29 | 55.11425 | 11.33552 | 27843 ft | 367 kts | 237° |
| 2026-05-08 07:29 | 55.10084 | 11.29757 | 28063 ft | 368 kts | 237° |
| 2026-05-08 07:30 | 55.08749 | 11.25935 | 28281 ft | 369 kts | 237° |
| 2026-05-08 07:30 | 55.07411 | 11.22108 | 28491 ft | 370 kts | 237° |
| 2026-05-08 07:30 | 55.06058 | 11.18278 | 28684 ft | 371 kts | 237° |
| 2026-05-08 07:30 | 55.04693 | 11.14440 | 28884 ft | 373 kts | 236° |
| 2026-05-08 07:31 | 55.03328 | 11.10587 | 29079 ft | 374 kts | 237° |
| 2026-05-08 07:31 | 55.01970 | 11.06721 | 29269 ft | 375 kts | 237° |
| 2026-05-08 07:31 | 55.00603 | 11.02845 | 29491 ft | 375 kts | 237° |
| 2026-05-08 07:31 | 54.99235 | 10.98965 | 29674 ft | 376 kts | 237° |
| 2026-05-08 07:32 | 54.98320 | 10.96396 | 29792 ft | 377 kts | 237° |
| 2026-05-08 07:32 | 54.96932 | 10.92510 | 29982 ft | 378 kts | 236° |
| 2026-05-08 07:32 | 54.95548 | 10.88615 | 30145 ft | 379 kts | 236° |
| 2026-05-08 07:33 | 54.92690 | 10.80812 | 30246 ft | 387 kts | 234° |
| 2026-05-08 07:33 | 54.89628 | 10.72991 | 30249 ft | 396 kts | 233° |
| 2026-05-08 07:34 | 54.86465 | 10.65042 | 30252 ft | 402 kts | 233° |
| 2026-05-08 07:34 | 54.83273 | 10.57062 | 30241 ft | 404 kts | 233° |
| 2026-05-08 07:35 | 54.80094 | 10.48999 | 30230 ft | 406 kts | 234° |
| 2026-05-08 07:35 | 54.76903 | 10.40922 | 30234 ft | 407 kts | 234° |
| 2026-05-08 07:36 | 54.73718 | 10.32897 | 30233 ft | 407 kts | 234° |
| 2026-05-08 07:36 | 54.70643 | 10.24689 | 30223 ft | 406 kts | 238° |
| 2026-05-08 07:37 | 54.67844 | 10.16227 | 30223 ft | 405 kts | 239° |
| 2026-05-08 07:37 | 54.65134 | 10.07705 | 30232 ft | 404 kts | 240° |
| 2026-05-08 07:38 | 54.62418 | 9.99209 | 30221 ft | 403 kts | 239° |
| 2026-05-08 07:38 | 54.59662 | 9.90793 | 30232 ft | 403 kts | 239° |
| 2026-05-08 07:39 | 54.57269 | 9.83471 | 30215 ft | 402 kts | 240° |
| 2026-05-08 07:39 | 54.54539 | 9.75086 | 30212 ft | 401 kts | 240° |
| 2026-05-08 07:40 | 54.51820 | 9.66727 | 30220 ft | 400 kts | 240° |
| 2026-05-08 07:40 | 54.49093 | 9.58399 | 30209 ft | 399 kts | 239° |
| 2026-05-08 07:41 | 54.46351 | 9.50144 | 30214 ft | 398 kts | 240° |
| 2026-05-08 07:41 | 54.43612 | 9.41884 | 30215 ft | 397 kts | 239° |
| 2026-05-08 07:42 | 54.40875 | 9.33652 | 30211 ft | 397 kts | 239° |
| 2026-05-08 07:42 | 54.38118 | 9.25470 | 30199 ft | 396 kts | 239° |
| 2026-05-08 07:43 | 54.35368 | 9.17305 | 30194 ft | 395 kts | 240° |
| 2026-05-08 07:43 | 54.32642 | 9.09205 | 30208 ft | 394 kts | 240° |
| 2026-05-08 07:44 | 54.29891 | 9.01016 | 30197 ft | 394 kts | 239° |
| 2026-05-08 07:44 | 54.27183 | 8.92948 | 30206 ft | 393 kts | 239° |
| 2026-05-08 07:45 | 54.24450 | 8.84853 | 30197 ft | 393 kts | 239° |
| 2026-05-08 07:45 | 54.21702 | 8.76783 | 30200 ft | 392 kts | 239° |
| 2026-05-08 07:46 | 54.18950 | 8.68747 | 30188 ft | 392 kts | 239° |
| 2026-05-08 07:46 | 54.16197 | 8.60725 | 30190 ft | 391 kts | 239° |
| 2026-05-08 07:47 | 54.13456 | 8.52714 | 30189 ft | 390 kts | 239° |
| 2026-05-08 07:47 | 54.10694 | 8.44761 | 30199 ft | 390 kts | 239° |
| 2026-05-08 07:48 | 54.07933 | 8.36807 | 30194 ft | 390 kts | 239° |
| 2026-05-08 07:48 | 54.05167 | 8.28882 | 30196 ft | 389 kts | 239° |
| 2026-05-08 07:49 | 54.02410 | 8.20966 | 30203 ft | 389 kts | 239° |
| 2026-05-08 07:49 | 53.99648 | 8.13077 | 30198 ft | 388 kts | 239° |
| 2026-05-08 07:50 | 53.96880 | 8.05209 | 30190 ft | 388 kts | 239° |
| 2026-05-08 07:50 | 53.94121 | 7.97358 | 30197 ft | 387 kts | 239° |
| 2026-05-08 07:51 | 53.91370 | 7.89514 | 30199 ft | 386 kts | 239° |
| 2026-05-08 07:51 | 53.88616 | 7.81699 | 30199 ft | 386 kts | 239° |
| 2026-05-08 07:52 | 53.85851 | 7.73903 | 30188 ft | 385 kts | 239° |
| 2026-05-08 07:52 | 53.83088 | 7.66132 | 30191 ft | 385 kts | 239° |
| 2026-05-08 07:53 | 53.80326 | 7.58376 | 30181 ft | 384 kts | 239° |
| 2026-05-08 07:53 | 53.77558 | 7.50654 | 30181 ft | 384 kts | 239° |
| 2026-05-08 07:54 | 53.74777 | 7.42955 | 30174 ft | 383 kts | 239° |
| 2026-05-08 07:54 | 53.71978 | 7.35310 | 30178 ft | 382 kts | 240° |
| 2026-05-08 07:55 | 53.69217 | 7.27643 | 30185 ft | 382 kts | 240° |
| 2026-05-08 07:55 | 53.66455 | 7.19991 | 30175 ft | 381 kts | 240° |
| 2026-05-08 07:56 | 53.63679 | 7.12378 | 30176 ft | 381 kts | 240° |
| 2026-05-08 07:56 | 53.60906 | 7.04781 | 30174 ft | 380 kts | 240° |
| 2026-05-08 07:57 | 53.58126 | 6.97209 | 30175 ft | 380 kts | 240° |
| 2026-05-08 07:57 | 53.55294 | 6.89708 | 30174 ft | 380 kts | 237° |
| 2026-05-08 07:58 | 53.52223 | 6.82484 | 30156 ft | 380 kts | 236° |
| 2026-05-08 07:58 | 53.49141 | 6.75353 | 30166 ft | 379 kts | 236° |
| 2026-05-08 07:59 | 53.46047 | 6.68185 | 30172 ft | 379 kts | 236° |
| 2026-05-08 07:59 | 53.42960 | 6.61021 | 30160 ft | 379 kts | 236° |
| 2026-05-08 08:00 | 53.39875 | 6.53864 | 30157 ft | 379 kts | 236° |
| 2026-05-08 08:00 | 53.36791 | 6.46719 | 30152 ft | 378 kts | 236° |
| 2026-05-08 08:01 | 53.33706 | 6.39582 | 30156 ft | 378 kts | 236° |
| 2026-05-08 08:01 | 53.30619 | 6.32452 | 30150 ft | 378 kts | 236° |
| 2026-05-08 08:02 | 53.27529 | 6.25329 | 30158 ft | 378 kts | 236° |
| 2026-05-08 08:02 | 53.24439 | 6.18216 | 30159 ft | 378 kts | 236° |
| 2026-05-08 08:03 | 53.21350 | 6.11112 | 30173 ft | 378 kts | 236° |
| 2026-05-08 08:03 | 53.18231 | 6.04036 | 30178 ft | 378 kts | 235° |
| 2026-05-08 08:04 | 53.15119 | 5.96961 | 30183 ft | 379 kts | 235° |
| 2026-05-08 08:04 | 53.11999 | 5.89891 | 30176 ft | 379 kts | 235° |
| 2026-05-08 08:05 | 53.08874 | 5.82837 | 30174 ft | 379 kts | 234° |
| 2026-05-08 08:05 | 53.05742 | 5.75797 | 30175 ft | 379 kts | 234° |
| 2026-05-08 08:06 | 53.02603 | 5.68757 | 30173 ft | 379 kts | 234° |
| 2026-05-08 08:06 | 52.99478 | 5.61760 | 30155 ft | 379 kts | 234° |
| 2026-05-08 08:07 | 52.96337 | 5.54730 | 30154 ft | 379 kts | 234° |
| 2026-05-08 08:07 | 52.93198 | 5.47682 | 30155 ft | 380 kts | 234° |
| 2026-05-08 08:08 | 52.90060 | 5.40639 | 30155 ft | 380 kts | 234° |
| 2026-05-08 08:08 | 52.86879 | 5.33646 | 30151 ft | 380 kts | 233° |
| 2026-05-08 08:09 | 52.83706 | 5.26634 | 30149 ft | 380 kts | 234° |
| 2026-05-08 08:09 | 52.80521 | 5.19638 | 30150 ft | 380 kts | 234° |
| 2026-05-08 08:10 | 52.77340 | 5.12648 | 30151 ft | 381 kts | 234° |
| 2026-05-08 08:10 | 52.74155 | 5.05663 | 30152 ft | 381 kts | 234° |
| 2026-05-08 08:11 | 52.70953 | 4.98687 | 30145 ft | 381 kts | 233° |
| 2026-05-08 08:11 | 52.67745 | 4.91724 | 30139 ft | 382 kts | 233° |
| 2026-05-08 08:12 | 52.64535 | 4.84755 | 30131 ft | 382 kts | 233° |
| 2026-05-08 08:12 | 52.61356 | 4.77831 | 30136 ft | 382 kts | 233° |
| 2026-05-08 08:13 | 52.58153 | 4.70854 | 30138 ft | 382 kts | 233° |
| 2026-05-08 08:13 | 52.54946 | 4.63875 | 30131 ft | 383 kts | 233° |
| 2026-05-08 08:14 | 52.51807 | 4.57075 | 30135 ft | 383 kts | 233° |
| 2026-05-08 08:14 | 52.48568 | 4.50134 | 30133 ft | 383 kts | 233° |
| 2026-05-08 08:15 | 52.45324 | 4.43210 | 30130 ft | 383 kts | 233° |
| 2026-05-08 08:15 | 52.42072 | 4.36306 | 30131 ft | 383 kts | 232° |
| 2026-05-08 08:16 | 52.38826 | 4.29400 | 30132 ft | 383 kts | 232° |
| 2026-05-08 08:16 | 52.35570 | 4.22504 | 30130 ft | 383 kts | 233° |
| 2026-05-08 08:17 | 52.32312 | 4.15610 | 30133 ft | 383 kts | 233° |
| 2026-05-08 08:17 | 52.29047 | 4.08724 | 30133 ft | 383 kts | 233° |
| 2026-05-08 08:18 | 52.25780 | 4.01858 | 30135 ft | 383 kts | 233° |
| 2026-05-08 08:18 | 52.23056 | 3.96147 | 30135 ft | 383 kts | 232° |
| 2026-05-08 08:19 | 52.19781 | 3.89297 | 30126 ft | 383 kts | 232° |
| 2026-05-08 08:19 | 52.16498 | 3.82447 | 30129 ft | 383 kts | 232° |
| 2026-05-08 08:20 | 52.13215 | 3.75610 | 30130 ft | 383 kts | 232° |
| 2026-05-08 08:20 | 52.09928 | 3.68780 | 30117 ft | 383 kts | 232° |
| 2026-05-08 08:21 | 52.06631 | 3.61950 | 30116 ft | 384 kts | 232° |
| 2026-05-08 08:21 | 52.03328 | 3.55143 | 30111 ft | 384 kts | 232° |
| 2026-05-08 08:22 | 52.00025 | 3.48330 | 30111 ft | 384 kts | 232° |
| 2026-05-08 08:22 | 51.96717 | 3.41539 | 30115 ft | 384 kts | 232° |
| 2026-05-08 08:23 | 51.93439 | 3.34781 | 30115 ft | 384 kts | 232° |
| 2026-05-08 08:23 | 51.90137 | 3.27967 | 30112 ft | 384 kts | 232° |
| 2026-05-08 08:24 | 51.86832 | 3.21156 | 30114 ft | 385 kts | 232° |
| 2026-05-08 08:24 | 51.85439 | 3.17485 | 30108 ft | 385 kts | 248° |
| 2026-05-08 08:24 | 51.84697 | 3.13335 | 30117 ft | 385 kts | 257° |
| 2026-05-08 08:25 | 51.83935 | 3.04746 | 30120 ft | 386 kts | 263° |
| 2026-05-08 08:25 | 51.83432 | 2.96101 | 30119 ft | 387 kts | 264° |
| 2026-05-08 08:26 | 51.82939 | 2.87442 | 30118 ft | 387 kts | 263° |
| 2026-05-08 08:26 | 51.82384 | 2.78786 | 30116 ft | 387 kts | 262° |
| 2026-05-08 08:27 | 51.81774 | 2.70130 | 30116 ft | 387 kts | 262° |
| 2026-05-08 08:27 | 51.81185 | 2.61534 | 30116 ft | 388 kts | 262° |